createdAt,value
2022-12-06T00:01:25.951Z,6.23
2022-12-06T00:03:55.487Z,6.09
2022-12-06T00:06:25.639Z,5.99
2022-12-06T00:08:53.755Z,6.12
2022-12-06T00:11:22.500Z,6.26
2022-12-06T00:13:55.634Z,6.23
2022-12-06T00:16:24.679Z,6.19
2022-12-06T00:18:52.980Z,6.22
2022-12-06T00:21:22.595Z,6.16
2022-12-06T00:23:52.132Z,6.15
2022-12-06T00:26:20.602Z,6.10
2022-12-06T00:28:48.526Z,6.07
2022-12-06T00:31:20.052Z,6.19
2022-12-06T00:33:47.685Z,6.14
2022-12-06T00:36:16.906Z,6.18
2022-12-06T00:38:44.723Z,6.10
2022-12-06T00:41:14.177Z,6.05
2022-12-06T00:43:41.825Z,5.99
2022-12-06T00:46:13.156Z,5.82
2022-12-06T00:48:42.291Z,5.84
2022-12-06T00:51:10.105Z,5.89
2022-12-06T00:53:37.745Z,6.01
2022-12-06T00:56:05.856Z,6.18
2022-12-06T00:58:33.760Z,6.14
2022-12-06T01:01:09.382Z,5.98
2022-12-06T01:03:37.110Z,5.82
2022-12-06T01:06:07.343Z,5.93
2022-12-06T01:08:35.645Z,5.76
2022-12-06T01:11:03.843Z,6.00
2022-12-06T01:13:31.623Z,6.07
2022-12-06T01:16:05.620Z,5.98
2022-12-06T01:18:33.108Z,5.93
2022-12-06T01:21:06.424Z,5.94
2022-12-06T01:23:33.985Z,5.85
2022-12-06T01:26:01.675Z,5.86
2022-12-06T01:28:29.352Z,5.75
2022-12-06T01:30:56.879Z,5.78
2022-12-06T01:33:28.079Z,5.83
2022-12-06T01:35:55.559Z,5.75
2022-12-06T01:38:24.392Z,5.90
2022-12-06T01:40:52.133Z,5.86
2022-12-06T01:43:37.349Z,5.76
2022-12-06T01:46:13.988Z,5.80
2022-12-06T01:48:42.456Z,5.98
2022-12-06T01:51:12.943Z,5.82
2022-12-06T01:53:45.017Z,5.62
2022-12-06T01:56:12.756Z,5.62
2022-12-06T01:58:42.382Z,5.71
2022-12-06T02:01:11.343Z,5.73
2022-12-06T02:03:39.332Z,5.63
2022-12-06T02:06:09.407Z,5.69
2022-12-06T02:08:38.112Z,5.71
2022-12-06T02:11:07.218Z,5.77
2022-12-06T02:13:36.326Z,5.73
2022-12-06T02:16:16.490Z,5.70
2022-12-06T02:18:50.844Z,5.64
2022-12-06T02:21:27.969Z,5.63
2022-12-06T02:24:36.266Z,5.75
2022-12-06T02:27:22.034Z,5.72
2022-12-06T02:30:08.449Z,5.70
2022-12-06T02:32:49.221Z,5.72
2022-12-06T02:35:28.518Z,5.78
2022-12-06T02:38:06.648Z,5.86
2022-12-06T02:40:39.443Z,5.76
2022-12-06T02:43:10.705Z,5.89
2022-12-06T02:45:43.974Z,5.63
2022-12-06T02:48:15.352Z,5.58
2022-12-06T02:50:47.544Z,5.55
2022-12-06T02:53:18.529Z,5.59
2022-12-06T02:55:47.431Z,5.41
2022-12-06T02:58:14.894Z,5.43
2022-12-06T03:00:44.587Z,5.45
2022-12-06T03:03:25.441Z,5.52
2022-12-06T03:06:34.422Z,5.44
2022-12-06T03:09:10.587Z,5.65
2022-12-06T03:11:51.293Z,5.63
2022-12-06T03:14:22.319Z,5.63
2022-12-06T03:16:55.255Z,5.61
2022-12-06T03:19:26.578Z,5.65
2022-12-06T03:21:59.867Z,5.65
2022-12-06T03:24:29.483Z,5.64
2022-12-06T03:27:00.712Z,5.60
2022-12-06T03:29:31.693Z,5.56
2022-12-06T03:32:02.996Z,5.57
2022-12-06T03:34:37.331Z,5.44
2022-12-06T03:37:07.279Z,5.64
2022-12-06T03:39:39.875Z,5.70
2022-12-06T03:42:08.318Z,5.73
2022-12-06T03:44:36.461Z,5.74
2022-12-06T03:47:08.365Z,5.73
2022-12-06T03:49:42.989Z,5.81
2022-12-06T03:52:10.927Z,5.54
2022-12-06T03:54:39.797Z,5.63
2022-12-06T03:57:07.537Z,5.62
2022-12-06T03:59:35.052Z,5.62
2022-12-06T04:02:02.574Z,5.59
2022-12-06T04:04:30.147Z,5.70
2022-12-06T04:06:58.955Z,5.76
2022-12-06T04:09:43.923Z,5.77
2022-12-06T04:12:25.384Z,5.68
2022-12-06T04:14:52.854Z,5.67
2022-12-06T04:17:37.945Z,5.60
2022-12-06T04:20:06.728Z,5.71
2022-12-06T04:22:53.377Z,5.51
2022-12-06T04:25:20.978Z,5.65
2022-12-06T04:28:02.396Z,5.70
2022-12-06T04:30:47.300Z,5.66
2022-12-06T04:33:32.526Z,5.51
2022-12-06T04:36:17.389Z,5.51
2022-12-06T04:38:46.195Z,5.48
2022-12-06T04:41:35.146Z,5.65
2022-12-06T04:44:01.682Z,5.58
2022-12-06T04:46:29.269Z,5.76
2022-12-06T04:48:56.895Z,5.63
2022-12-06T04:51:25.262Z,5.65
2022-12-06T04:53:54.186Z,5.72
2022-12-06T04:56:22.006Z,5.59
2022-12-06T04:58:49.500Z,5.53
2022-12-06T05:01:17.041Z,5.62
2022-12-06T05:03:44.738Z,5.72
2022-12-06T05:06:12.527Z,5.47
2022-12-06T05:08:40.094Z,5.55
2022-12-06T05:11:08.988Z,5.53
2022-12-06T05:13:36.864Z,5.49
2022-12-06T05:16:06.695Z,5.45
2022-12-06T05:18:35.106Z,5.41
2022-12-06T05:21:04.125Z,5.42
2022-12-06T05:23:31.586Z,5.25
2022-12-06T05:26:00.283Z,5.46
2022-12-06T05:28:29.927Z,5.35
2022-12-06T05:30:57.645Z,5.37
2022-12-06T05:33:25.992Z,5.51
2022-12-06T05:35:53.759Z,5.36
2022-12-06T05:38:21.505Z,5.32
2022-12-06T05:40:49.011Z,5.41
2022-12-06T05:43:17.331Z,5.27
2022-12-06T05:45:46.165Z,5.47
2022-12-06T05:48:13.662Z,5.23
2022-12-06T05:50:41.142Z,5.26
2022-12-06T05:53:08.627Z,5.31
2022-12-06T05:55:36.121Z,5.42
2022-12-06T05:58:03.593Z,5.39
2022-12-06T06:00:31.088Z,5.32
2022-12-06T06:03:00.065Z,5.25
2022-12-06T06:05:27.710Z,5.36
2022-12-06T06:07:55.579Z,5.27
2022-12-06T06:10:23.219Z,5.23
2022-12-06T06:12:50.868Z,5.41
2022-12-06T06:15:18.891Z,5.33
2022-12-06T06:17:46.228Z,5.42
2022-12-06T06:20:15.218Z,5.25
2022-12-06T06:22:43.233Z,5.38
2022-12-06T06:25:11.238Z,5.37
2022-12-06T06:27:38.946Z,5.23
2022-12-06T06:30:08.739Z,5.24
2022-12-06T06:32:36.411Z,5.40
2022-12-06T06:35:05.210Z,5.27
2022-12-06T06:37:34.418Z,5.31
2022-12-06T06:40:02.644Z,5.15
2022-12-06T06:42:30.460Z,5.18
2022-12-06T06:44:57.953Z,5.18
2022-12-06T06:47:25.423Z,5.28
2022-12-06T06:49:52.892Z,5.38
2022-12-06T06:52:20.605Z,5.43
2022-12-06T06:54:49.442Z,5.42
2022-12-06T06:57:18.300Z,5.29
2022-12-06T06:59:45.819Z,5.19
2022-12-06T07:02:14.122Z,5.42
2022-12-06T07:04:42.324Z,5.23
2022-12-06T07:07:10.039Z,5.20
2022-12-06T07:09:37.788Z,5.41
2022-12-06T07:12:07.086Z,5.36
2022-12-06T07:14:34.828Z,5.46
2022-12-06T07:17:02.543Z,5.36
2022-12-06T07:19:30.107Z,5.16
2022-12-06T07:21:57.588Z,5.18
2022-12-06T07:24:25.106Z,5.11
2022-12-06T07:26:52.568Z,5.12
2022-12-06T07:29:21.393Z,5.28
2022-12-06T07:31:49.819Z,5.44
2022-12-06T07:34:17.435Z,5.37
2022-12-06T07:36:44.929Z,5.19
2022-12-06T07:39:15.007Z,5.09
2022-12-06T07:42:00.607Z,5.00
2022-12-06T07:44:47.400Z,5.11
2022-12-06T07:47:14.926Z,4.96
2022-12-06T07:49:42.502Z,4.91
2022-12-06T07:52:09.991Z,4.94
2022-12-06T07:54:37.505Z,5.08
2022-12-06T07:57:05.016Z,5.00
2022-12-06T07:59:34.931Z,4.99
2022-12-06T08:02:02.533Z,5.30
2022-12-06T08:04:30.302Z,5.21
2022-12-06T08:06:57.808Z,5.21
2022-12-06T08:09:25.369Z,5.21
2022-12-06T08:11:52.882Z,5.23
2022-12-06T08:14:20.373Z,5.27
2022-12-06T08:16:49.217Z,5.40
2022-12-06T08:19:16.843Z,5.20
2022-12-06T08:21:45.524Z,5.05
2022-12-06T08:24:13.542Z,5.14
2022-12-06T08:26:40.921Z,5.22
2022-12-06T08:29:08.471Z,5.17
2022-12-06T08:31:36.162Z,5.11
2022-12-06T08:34:05.727Z,5.15
2022-12-06T08:36:34.195Z,5.20
2022-12-06T08:39:02.011Z,5.28
2022-12-06T08:41:47.008Z,5.36
2022-12-06T08:44:16.231Z,5.16
2022-12-06T08:46:44.152Z,5.27
2022-12-06T08:49:14.273Z,5.19
2022-12-06T08:51:41.967Z,5.19
2022-12-06T08:54:10.721Z,5.11
2022-12-06T08:56:38.360Z,5.18
2022-12-06T08:59:06.134Z,5.16
2022-12-06T09:01:38.222Z,5.30
2022-12-06T09:04:08.160Z,5.31
2022-12-06T09:06:38.686Z,5.35
2022-12-06T09:09:06.530Z,5.36
2022-12-06T09:11:34.042Z,5.23
2022-12-06T09:14:01.544Z,5.08
2022-12-06T09:16:29.205Z,5.19
2022-12-06T09:18:56.751Z,5.26
2022-12-06T09:21:25.950Z,5.19
2022-12-06T09:23:57.759Z,5.22
2022-12-06T09:26:25.993Z,5.27
2022-12-06T09:28:55.697Z,5.43
2022-12-06T09:31:23.290Z,5.54
2022-12-06T09:33:51.171Z,5.52
2022-12-06T09:36:22.184Z,5.55
2022-12-06T09:38:54.573Z,5.37
2022-12-06T09:41:40.319Z,5.55
2022-12-06T09:44:25.362Z,5.60
2022-12-06T09:47:04.071Z,5.62
2022-12-06T09:49:33.256Z,5.53
2022-12-06T09:52:25.436Z,5.60
2022-12-06T09:55:07.365Z,5.48
2022-12-06T09:57:43.550Z,5.56
2022-12-06T10:00:20.610Z,5.48
2022-12-06T10:03:19.426Z,5.59
2022-12-06T10:06:02.698Z,5.58
2022-12-06T10:08:53.059Z,5.67
2022-12-06T10:11:32.232Z,5.61
2022-12-06T10:14:13.689Z,5.53
2022-12-06T10:16:54.597Z,5.51
2022-12-06T10:19:34.627Z,5.64
2022-12-06T10:22:12.392Z,5.64
2022-12-06T10:24:49.916Z,5.76
2022-12-06T10:27:23.928Z,5.65
2022-12-06T10:29:57.604Z,5.52
2022-12-06T10:32:41.553Z,5.52
2022-12-06T10:35:19.202Z,5.59
2022-12-06T10:37:57.014Z,5.71
2022-12-06T10:40:33.121Z,5.60
2022-12-06T10:43:11.203Z,5.47
2022-12-06T10:46:08.502Z,5.46
2022-12-06T10:48:42.443Z,5.34
2022-12-06T10:51:15.226Z,5.45
2022-12-06T10:53:49.308Z,5.51
2022-12-06T10:56:21.301Z,5.52
2022-12-06T10:58:55.036Z,5.39
2022-12-06T11:01:28.162Z,5.43
2022-12-06T11:04:01.171Z,5.43
2022-12-06T11:06:33.029Z,5.32
2022-12-06T11:09:05.694Z,5.26
2022-12-06T11:11:36.344Z,5.38
2022-12-06T11:14:07.978Z,5.41
2022-12-06T11:16:40.907Z,5.33
2022-12-06T11:19:21.385Z,5.32
2022-12-06T11:21:57.461Z,5.23
2022-12-06T11:24:31.720Z,5.17
2022-12-06T11:27:04.693Z,4.98
2022-12-06T11:29:32.616Z,5.18
2022-12-06T11:32:03.965Z,5.12
2022-12-06T11:34:36.792Z,5.06
2022-12-06T11:37:06.526Z,4.90
2022-12-06T11:39:34.889Z,4.98
2022-12-06T11:42:05.502Z,5.04
2022-12-06T11:44:46.289Z,5.03
2022-12-06T11:47:22.639Z,5.02
2022-12-06T11:49:52.424Z,5.17
2022-12-06T11:52:25.946Z,5.16
2022-12-06T11:54:58.757Z,5.07
2022-12-06T11:57:30.777Z,5.06
2022-12-06T12:00:14.364Z,5.11
2022-12-06T12:02:45.055Z,5.16
2022-12-06T12:05:19.540Z,5.19
2022-12-06T12:07:51.610Z,5.07
2022-12-06T12:10:28.839Z,5.21
2022-12-06T12:13:14.442Z,5.17
2022-12-06T12:15:51.100Z,5.07
2022-12-06T12:18:26.635Z,4.86
2022-12-06T12:20:55.869Z,4.90
2022-12-06T12:23:26.543Z,4.97
2022-12-06T12:26:02.766Z,5.00
2022-12-06T12:28:32.096Z,4.99
2022-12-06T12:31:00.934Z,4.96
2022-12-06T12:33:30.389Z,5.11
2022-12-06T12:36:15.787Z,5.10
2022-12-06T12:38:49.987Z,5.04
2022-12-06T12:41:27.219Z,5.26
2022-12-06T12:44:35.404Z,4.99
2022-12-06T12:46:53.396Z,4.91
2022-12-06T12:49:29.386Z,5.12
2022-12-06T12:51:57.917Z,5.03
2022-12-06T12:54:30.035Z,5.06
2022-12-06T12:57:03.317Z,5.06
2022-12-06T12:59:38.331Z,4.92
2022-12-06T13:02:16.582Z,4.93
2022-12-06T13:04:48.912Z,4.92
2022-12-06T13:07:28.452Z,5.02
2022-12-06T13:10:01.010Z,5.01
2022-12-06T13:12:34.078Z,5.05
2022-12-06T13:15:05.901Z,5.17
2022-12-06T13:17:36.872Z,4.90
2022-12-06T13:20:20.391Z,5.01
2022-12-06T13:22:53.745Z,4.81
2022-12-06T13:25:21.271Z,4.88
2022-12-06T13:27:55.237Z,4.94
2022-12-06T13:30:25.951Z,4.81
2022-12-06T13:32:56.102Z,4.65
2022-12-06T13:35:29.299Z,4.73
2022-12-06T13:37:58.566Z,4.89
2022-12-06T13:40:53.733Z,4.79
2022-12-06T13:43:49.802Z,4.68
2022-12-06T13:46:24.017Z,4.74
2022-12-06T13:48:53.107Z,4.84
2022-12-06T13:51:44.909Z,4.90
2022-12-06T13:54:36.178Z,4.65
2022-12-06T13:57:22.395Z,4.64
2022-12-06T13:59:50.223Z,4.50
2022-12-06T14:02:50.930Z,4.48
2022-12-06T14:08:32.850Z,4.33
2022-12-06T14:11:22.952Z,4.47
2022-12-06T14:14:01.504Z,4.33
2022-12-06T14:16:35.131Z,4.27
2022-12-06T14:19:05.302Z,4.44
2022-12-06T14:21:39.120Z,4.48
2022-12-06T14:24:08.132Z,4.52
2022-12-06T14:26:36.383Z,4.46
2022-12-06T14:29:03.975Z,4.45
2022-12-06T14:31:39.311Z,4.33
2022-12-06T14:34:06.871Z,4.43
2022-12-06T14:36:40.512Z,4.33
2022-12-06T14:39:17.164Z,4.47
2022-12-06T14:42:10.120Z,4.55
2022-12-06T14:44:37.725Z,4.47
2022-12-06T14:47:05.770Z,4.46
2022-12-06T14:49:52.525Z,4.53
2022-12-06T14:52:23.244Z,4.51
2022-12-06T14:54:52.991Z,4.40
2022-12-06T14:57:25.919Z,4.39
2022-12-06T15:00:25.831Z,4.51
2022-12-06T15:03:01.605Z,4.33
2022-12-06T15:05:35.136Z,4.30
2022-12-06T15:08:30.176Z,4.36
2022-12-06T15:11:00.890Z,4.23
2022-12-06T15:13:29.443Z,4.54
2022-12-06T15:16:04.139Z,4.42
2022-12-06T15:18:34.199Z,4.39
2022-12-06T15:21:01.848Z,4.34
2022-12-06T15:23:32.106Z,4.30
2022-12-06T15:26:00.953Z,4.27
2022-12-06T15:28:28.449Z,4.26
2022-12-06T15:30:55.970Z,4.29
2022-12-06T15:33:27.208Z,4.22
2022-12-06T15:35:54.977Z,4.25
2022-12-06T15:38:22.495Z,4.17
2022-12-06T15:40:51.760Z,4.32
2022-12-06T15:43:28.724Z,4.32
2022-12-06T15:45:57.047Z,4.42
2022-12-06T15:48:24.766Z,4.23
2022-12-06T15:50:52.416Z,4.26
2022-12-06T15:53:23.173Z,4.11
2022-12-06T15:55:51.036Z,4.07
2022-12-06T15:58:18.505Z,4.17
2022-12-06T16:00:47.667Z,4.02
2022-12-06T16:03:15.376Z,4.18
2022-12-06T16:05:42.969Z,4.07
2022-12-06T16:08:10.501Z,3.93
2022-12-06T16:11:10.325Z,3.94
2022-12-06T16:13:25.888Z,3.91
2022-12-06T16:15:54.798Z,3.80
2022-12-06T16:18:22.581Z,4.04
2022-12-06T16:20:52.987Z,3.88
2022-12-06T16:24:11.489Z,3.80
2022-12-06T16:26:29.421Z,3.94
2022-12-06T16:28:57.456Z,4.06
2022-12-06T16:31:26.522Z,4.12
2022-12-06T16:33:54.903Z,4.30
2022-12-06T16:36:24.757Z,4.16
2022-12-06T16:38:54.851Z,4.09
2022-12-06T16:41:25.927Z,4.02
2022-12-06T16:43:53.651Z,3.89
2022-12-06T16:46:29.299Z,4.06
2022-12-06T16:49:15.787Z,3.96
2022-12-06T16:51:46.824Z,3.96
2022-12-06T16:54:14.359Z,3.86
2022-12-06T16:56:41.964Z,3.78
2022-12-06T16:59:13.908Z,3.57
2022-12-06T17:01:48.052Z,3.54
2022-12-06T17:04:15.547Z,3.61
2022-12-06T17:06:43.067Z,3.67
2022-12-06T17:09:11.817Z,3.71
2022-12-06T17:11:59.012Z,3.64
2022-12-06T17:14:27.034Z,3.87
2022-12-06T17:16:55.747Z,3.81
2022-12-06T17:19:28.417Z,3.82
2022-12-06T17:21:56.737Z,3.74
2022-12-06T17:24:26.675Z,3.61
2022-12-06T17:26:55.177Z,3.59
2022-12-06T17:29:24.217Z,3.63
2022-12-06T17:31:52.303Z,3.54
2022-12-06T17:34:21.899Z,3.48
2022-12-06T17:36:50.483Z,3.52
2022-12-06T17:39:19.984Z,3.63
2022-12-06T17:42:05.387Z,3.68
2022-12-06T17:44:33.947Z,3.81
2022-12-06T17:47:02.086Z,3.83
2022-12-06T17:49:31.294Z,3.79
2022-12-06T17:51:58.950Z,3.60
2022-12-06T17:54:26.459Z,3.78
2022-12-06T17:56:56.160Z,3.66
2022-12-06T17:59:25.740Z,3.64
2022-12-06T18:02:14.574Z,3.54
2022-12-06T18:04:44.380Z,3.76
2022-12-06T18:07:12.023Z,3.81
2022-12-06T18:09:39.740Z,3.97
2022-12-06T18:12:09.056Z,3.68
2022-12-06T18:14:36.711Z,3.61
2022-12-06T18:17:04.989Z,3.59
2022-12-06T18:19:33.260Z,3.65
2022-12-06T18:22:02.370Z,3.59
2022-12-06T18:24:35.199Z,3.60
2022-12-06T18:27:03.452Z,3.37
2022-12-06T18:29:30.940Z,3.60
2022-12-06T18:31:58.645Z,3.62
2022-12-06T18:34:26.173Z,3.38
2022-12-06T18:36:53.685Z,3.60
2022-12-06T18:39:24.669Z,3.49
2022-12-06T18:41:53.567Z,3.35
2022-12-06T18:44:21.342Z,3.39
2022-12-06T18:46:48.898Z,3.43
2022-12-06T18:49:16.501Z,3.45
2022-12-06T18:51:43.996Z,3.65
2022-12-06T18:54:13.612Z,3.51
2022-12-06T18:56:43.159Z,3.59
2022-12-06T18:59:12.516Z,3.58
2022-12-06T19:01:41.774Z,3.60
2022-12-06T19:04:13.096Z,3.70
2022-12-06T19:06:40.721Z,3.51
2022-12-06T19:09:13.638Z,3.64
2022-12-06T19:11:45.590Z,3.64
2022-12-06T19:14:13.934Z,3.50
2022-12-06T19:16:43.283Z,3.55
2022-12-06T19:19:16.230Z,3.30
2022-12-06T19:21:45.384Z,3.46
2022-12-06T19:24:15.709Z,3.60
2022-12-06T19:26:44.936Z,3.51
2022-12-06T19:29:13.083Z,3.63
2022-12-06T19:31:40.583Z,3.49
2022-12-06T19:34:13.963Z,3.49
2022-12-06T19:36:41.491Z,3.39
2022-12-06T19:39:08.942Z,3.40
2022-12-06T19:41:57.119Z,3.38
2022-12-06T19:44:25.398Z,3.45
2022-12-06T19:46:53.095Z,3.58
2022-12-06T19:49:23.875Z,3.51
2022-12-06T19:51:52.204Z,3.36
2022-12-06T19:54:22.150Z,3.61
2022-12-06T19:56:50.285Z,3.42
2022-12-06T19:59:17.931Z,3.33
2022-12-06T20:01:48.288Z,3.38
2022-12-06T20:04:17.457Z,3.44
2022-12-06T20:06:45.652Z,3.39
2022-12-06T20:09:13.839Z,3.40
2022-12-06T20:11:59.644Z,3.54
2022-12-06T20:14:27.985Z,3.60
2022-12-06T20:16:57.146Z,3.50
2022-12-06T20:19:25.445Z,3.61
2022-12-06T20:21:53.119Z,3.57
2022-12-06T20:24:22.719Z,3.69
2022-12-06T20:26:53.143Z,3.44
2022-12-06T20:29:21.402Z,3.53
2022-12-06T20:31:51.154Z,3.54
2022-12-06T20:34:20.340Z,3.48
2022-12-06T20:36:48.335Z,3.64
2022-12-06T20:39:19.140Z,3.59
2022-12-06T20:41:46.690Z,3.53
2022-12-06T20:44:14.227Z,3.44
2022-12-06T20:46:41.830Z,3.40
2022-12-06T20:49:09.563Z,3.46
2022-12-06T20:51:38.504Z,3.43
2022-12-06T20:54:07.826Z,3.32
2022-12-06T20:56:37.122Z,3.37
2022-12-06T20:59:06.590Z,3.63
2022-12-06T21:01:38.581Z,3.44
2022-12-06T21:04:06.691Z,3.47
2022-12-06T21:06:34.020Z,3.42
2022-12-06T21:09:06.827Z,3.58
2022-12-06T21:11:34.376Z,3.49
2022-12-06T21:14:03.320Z,3.52
2022-12-06T21:16:32.592Z,3.49
2022-12-06T21:19:02.371Z,3.48
2022-12-06T21:21:32.244Z,3.47
2022-12-06T21:24:00.576Z,3.54
2022-12-06T21:26:30.399Z,3.45
2022-12-06T21:28:58.372Z,3.59
2022-12-06T21:31:26.903Z,3.64
2022-12-06T21:33:54.917Z,3.62
2022-12-06T21:36:22.419Z,3.65
2022-12-06T21:38:50.081Z,3.66
2022-12-06T21:41:17.620Z,3.71
2022-12-06T21:43:46.455Z,3.78
2022-12-06T21:46:16.249Z,3.80
2022-12-06T21:48:45.011Z,3.63
2022-12-06T21:51:14.332Z,3.72
2022-12-06T21:53:42.238Z,3.72
2022-12-06T21:56:11.391Z,3.72
2022-12-06T21:58:38.894Z,3.83
2022-12-06T22:01:09.756Z,3.83
2022-12-06T22:03:38.099Z,3.83
2022-12-06T22:06:06.674Z,3.84
2022-12-06T22:08:34.221Z,3.65
2022-12-06T22:11:02.009Z,3.66
2022-12-06T22:13:29.475Z,3.81
2022-12-06T22:15:56.999Z,3.65
2022-12-06T22:18:25.967Z,3.71
2022-12-06T22:21:00.839Z,3.85
2022-12-06T22:23:28.602Z,3.71
2022-12-06T22:25:56.080Z,3.80
2022-12-06T22:28:23.925Z,3.72
2022-12-06T22:30:51.441Z,3.76
2022-12-06T22:33:20.168Z,3.85
2022-12-06T22:35:48.982Z,3.87
2022-12-06T22:38:16.423Z,3.89
2022-12-06T22:40:43.912Z,3.72
2022-12-06T22:43:11.371Z,3.63
2022-12-06T22:45:38.844Z,3.90
2022-12-06T22:48:06.691Z,3.83
2022-12-06T22:50:34.152Z,3.85
2022-12-06T22:53:03.074Z,3.71
2022-12-06T22:55:30.559Z,3.77
2022-12-06T22:57:58.068Z,3.80
2022-12-06T23:00:26.052Z,3.93
2022-12-06T23:02:53.420Z,3.84
2022-12-06T23:05:20.906Z,4.07
2022-12-06T23:07:48.845Z,3.87
2022-12-06T23:10:17.861Z,3.74
2022-12-06T23:12:45.371Z,3.88
2022-12-06T23:15:12.814Z,3.92
2022-12-06T23:17:40.288Z,3.85
2022-12-06T23:20:09.071Z,3.79
2022-12-06T23:22:44.201Z,3.83
2022-12-06T23:25:11.721Z,4.01
2022-12-06T23:27:40.538Z,3.88
2022-12-06T23:30:09.456Z,3.97
2022-12-06T23:32:36.938Z,3.98
2022-12-06T23:35:05.032Z,4.01
2022-12-06T23:37:35.918Z,3.98
2022-12-06T23:40:03.754Z,3.98
2022-12-06T23:42:31.343Z,4.02
2022-12-06T23:45:00.179Z,3.89
2022-12-06T23:47:27.664Z,3.95
2022-12-06T23:49:55.161Z,3.85
2022-12-06T23:52:22.664Z,4.02
2022-12-06T23:54:50.147Z,4.09
2022-12-06T23:57:25.540Z,3.97
2022-12-06T23:59:53.010Z,3.98
